createdAt,value
2023-02-04T00:00:31.571Z,98627.34
2023-02-04T00:01:33.277Z,98624.34
2023-02-04T00:02:35.192Z,98623.94
2023-02-04T00:03:36.734Z,98625.59
2023-02-04T00:04:38.244Z,98629.97
2023-02-04T00:05:39.834Z,98623.72
2023-02-04T00:06:41.666Z,98628.81
2023-02-04T00:07:43.196Z,98621.94
2023-02-04T00:08:44.705Z,98620.91
2023-02-04T00:09:46.260Z,98625.38
2023-02-04T00:10:47.793Z,98620.28
2023-02-04T00:11:49.296Z,98617.59
2023-02-04T00:12:50.837Z,98617.38
2023-02-04T00:13:52.329Z,98616.34
2023-02-04T00:14:53.848Z,98615.28
2023-02-04T00:15:55.400Z,98616.03
2023-02-04T00:16:56.988Z,98621.22
2023-02-04T00:17:58.579Z,98617.69
2023-02-04T00:19:00.140Z,98614.34
2023-02-04T00:20:01.703Z,98613.94
2023-02-04T00:21:03.196Z,98613.00
2023-02-04T00:22:04.782Z,98617.50
2023-02-04T00:23:06.359Z,98615.69
2023-02-04T00:24:07.984Z,98615.59
2023-02-04T00:25:09.542Z,98609.56
2023-02-04T00:26:11.207Z,98614.44
2023-02-04T00:27:12.709Z,98607.38
2023-02-04T00:28:14.276Z,98616.44
2023-02-04T00:29:15.813Z,98606.84
2023-02-04T00:30:17.467Z,98611.44
2023-02-04T00:31:19.081Z,98614.84
2023-02-04T00:32:20.613Z,98611.31
2023-02-04T00:33:22.139Z,98613.09
2023-02-04T00:34:23.788Z,98603.50
2023-02-04T00:35:25.330Z,98604.22
2023-02-04T00:36:27.615Z,98604.97
2023-02-04T00:37:29.122Z,98603.91
2023-02-04T00:38:30.705Z,98606.41
2023-02-04T00:39:32.205Z,98610.78
2023-02-04T00:40:33.890Z,98605.38
2023-02-04T00:41:35.408Z,98609.03
2023-02-04T00:42:36.898Z,98609.66
2023-02-04T00:43:38.457Z,98615.66
2023-02-04T00:44:40.095Z,98602.78
2023-02-04T00:45:41.640Z,98607.03
2023-02-04T00:46:43.164Z,98606.81
2023-02-04T00:47:44.768Z,98611.81
2023-02-04T00:48:46.298Z,98609.53
2023-02-04T00:49:47.795Z,98606.81
2023-02-04T00:50:49.309Z,98605.78
2023-02-04T00:51:50.876Z,98598.69
2023-02-04T00:52:52.359Z,98602.88
2023-02-04T00:53:53.909Z,98604.31
2023-02-04T00:54:55.413Z,98602.72
2023-02-04T00:55:56.991Z,98600.25
2023-02-04T00:56:58.595Z,98592.53
2023-02-04T00:58:00.256Z,98592.63
2023-02-04T00:59:01.831Z,98588.06
2023-02-04T01:00:04.744Z,98599.09
2023-02-04T01:01:06.270Z,98590.34
2023-02-04T01:02:07.881Z,98589.41
2023-02-04T01:03:09.924Z,98589.31
2023-02-04T01:04:11.657Z,98581.50
2023-02-04T01:05:13.184Z,98580.53
2023-02-04T01:06:14.695Z,98586.06
2023-02-04T01:07:16.521Z,98582.75
2023-02-04T01:08:18.069Z,98578.13
2023-02-04T01:09:19.698Z,98570.44
2023-02-04T01:10:21.250Z,98579.31
2023-02-04T01:11:23.090Z,98582.63
2023-02-04T01:12:24.723Z,98580.16
2023-02-04T01:13:26.392Z,98572.22
2023-02-04T01:14:27.955Z,98576.91
2023-02-04T01:15:29.630Z,98570.78
2023-02-04T01:16:31.157Z,98565.66
2023-02-04T01:17:32.683Z,98570.53
2023-02-04T01:18:34.255Z,98564.31
2023-02-04T01:19:35.831Z,98562.03
2023-02-04T01:20:37.376Z,98563.06
2023-02-04T01:21:40.801Z,98563.28
2023-02-04T01:22:42.569Z,98563.28
2023-02-04T01:23:44.220Z,98565.06
2023-02-04T01:24:45.741Z,98566.94
2023-02-04T01:26:06.052Z,98563.59
2023-02-04T01:27:07.583Z,98563.50
2023-02-04T01:28:09.238Z,98570.69
2023-02-04T01:29:11.146Z,98562.78
2023-02-04T01:30:14.462Z,98561.00
2023-02-04T01:31:16.189Z,98570.47
2023-02-04T01:32:17.854Z,98575.81
2023-02-04T01:33:19.392Z,98581.00
2023-02-04T01:34:20.952Z,98593.09
2023-02-04T01:35:23.105Z,98597.16
2023-02-04T01:36:24.679Z,98637.78
2023-02-04T01:37:26.220Z,98644.00
2023-02-04T01:38:27.916Z,98626.03
2023-02-04T01:39:29.410Z,98617.78
2023-02-04T01:40:31.793Z,98621.81
2023-02-04T01:41:33.540Z,98631.16
2023-02-04T01:42:35.206Z,98637.69
2023-02-04T01:43:36.712Z,98623.97
2023-02-04T01:44:38.373Z,98637.59
2023-02-04T01:45:40.036Z,98632.41
2023-02-04T01:46:41.887Z,98627.63
2023-02-04T01:47:45.774Z,98633.63
2023-02-04T01:48:47.334Z,98647.75
2023-02-04T01:49:52.193Z,98644.31
2023-02-04T01:51:04.432Z,98644.31
2023-02-04T01:52:06.070Z,98653.06
2023-02-04T01:53:07.849Z,98647.94
2023-02-04T01:54:12.271Z,98660.94
2023-02-04T01:55:17.431Z,98663.44
2023-02-04T01:56:22.757Z,98675.78
2023-02-04T01:57:24.331Z,98672.97
2023-02-04T01:58:25.985Z,98679.19
2023-02-04T01:59:27.668Z,98683.41
2023-02-04T02:00:33.540Z,98693.06
2023-02-04T02:01:38.419Z,98702.88
2023-02-04T02:02:46.839Z,98679.94
2023-02-04T02:03:48.374Z,98680.50
2023-02-04T02:04:49.893Z,98698.09
2023-02-04T02:05:53.828Z,98700.69
2023-02-04T02:06:58.996Z,98686.25
2023-02-04T02:08:03.321Z,98686.25
2023-02-04T02:09:05.162Z,98693.09
2023-02-04T02:10:09.023Z,98691.63
2023-02-04T02:11:11.118Z,98688.91
2023-02-04T02:12:12.694Z,98696.63
2023-02-04T02:13:17.726Z,98693.22
2023-02-04T02:14:19.528Z,98687.09
2023-02-04T02:15:21.284Z,98689.78
2023-02-04T02:16:23.055Z,98701.28
2023-02-04T02:17:24.796Z,98708.31
2023-02-04T02:18:26.429Z,98698.56
2023-02-04T02:19:33.660Z,98699.50
2023-02-04T02:20:36.696Z,98700.34
2023-02-04T02:21:45.550Z,98702.28
2023-02-04T02:22:57.870Z,98702.03
2023-02-04T02:23:59.373Z,98694.13
2023-02-04T02:25:01.016Z,98707.56
2023-02-04T02:26:02.654Z,98687.81
2023-02-04T02:27:11.167Z,98691.59
2023-02-04T02:28:21.183Z,98725.44
2023-02-04T02:29:23.513Z,98704.78
2023-02-04T02:30:25.699Z,98699.78
2023-02-04T02:31:27.676Z,98704.88
2023-02-04T02:32:29.257Z,98694.19
2023-02-04T02:33:30.829Z,98707.16
2023-02-04T02:34:33.750Z,98706.91
2023-02-04T02:35:37.716Z,98703.03
2023-02-04T02:36:39.335Z,98708.13
2023-02-04T02:37:40.938Z,98680.41
2023-02-04T02:38:42.565Z,98704.63
2023-02-04T02:39:45.630Z,98703.38
2023-02-04T02:40:48.644Z,98694.97
2023-02-04T02:41:50.343Z,98720.91
2023-02-04T02:42:53.958Z,98701.81
2023-02-04T02:43:55.602Z,98701.09
2023-02-04T02:44:58.236Z,98703.84
2023-02-04T02:46:01.206Z,98710.97
2023-02-04T02:47:02.840Z,98698.84
2023-02-04T02:48:04.423Z,98690.41
2023-02-04T02:49:08.928Z,98696.03
2023-02-04T02:50:16.579Z,98698.56
2023-02-04T02:51:18.243Z,98698.44
2023-02-04T02:52:20.220Z,98705.50
2023-02-04T02:53:21.879Z,98709.09
2023-02-04T02:54:29.574Z,98704.09
2023-02-04T02:55:33.905Z,98690.19
2023-02-04T02:56:36.880Z,98701.50
2023-02-04T02:57:38.498Z,98724.66
2023-02-04T02:58:40.215Z,98700.94
2023-02-04T02:59:42.151Z,98690.38
2023-02-04T03:00:44.195Z,98708.63
2023-02-04T03:01:50.304Z,98698.16
2023-02-04T03:03:04.418Z,98693.81
2023-02-04T03:04:06.052Z,98711.13
2023-02-04T03:05:07.827Z,98716.59
2023-02-04T03:06:17.560Z,98703.72
2023-02-04T03:07:20.675Z,98710.91
2023-02-04T03:08:22.343Z,98723.31
2023-02-04T03:09:27.067Z,98721.00
2023-02-04T03:10:29.022Z,98710.63
2023-02-04T03:11:30.747Z,98723.78
2023-02-04T03:12:32.615Z,98724.41
2023-02-04T03:13:36.417Z,98724.50
2023-02-04T03:14:38.431Z,98737.38
2023-02-04T03:15:41.347Z,98731.09
2023-02-04T03:16:43.171Z,98724.31
2023-02-04T03:17:45.265Z,98750.25
2023-02-04T03:18:47.997Z,98731.56
2023-02-04T03:19:49.920Z,98713.41
2023-02-04T03:20:51.963Z,98732.97
2023-02-04T03:21:56.036Z,98734.50
2023-02-04T03:22:58.315Z,98739.69
2023-02-04T03:24:00.058Z,98726.38
2023-02-04T03:25:02.051Z,98730.28
2023-02-04T03:26:04.800Z,98747.50
2023-02-04T03:27:07.649Z,98738.34
2023-02-04T03:28:09.661Z,98734.34
2023-02-04T03:29:11.274Z,98747.44
2023-02-04T03:30:13.105Z,98747.88
2023-02-04T03:31:14.958Z,98746.22
2023-02-04T03:32:16.806Z,98760.03
2023-02-04T03:33:18.416Z,98760.41
2023-02-04T03:34:19.910Z,98762.88
2023-02-04T03:35:21.512Z,98773.47
2023-02-04T03:36:23.011Z,98765.88
2023-02-04T03:37:24.556Z,98777.16
2023-02-04T03:38:26.365Z,98780.00
2023-02-04T03:39:27.835Z,98778.56
2023-02-04T03:40:29.636Z,98772.47
2023-02-04T03:41:31.401Z,98802.03
2023-02-04T03:42:32.946Z,98803.50
2023-02-04T03:43:34.604Z,98812.75
2023-02-04T03:44:36.116Z,98825.84
2023-02-04T03:45:45.270Z,98824.41
2023-02-04T03:46:47.373Z,98852.22
2023-02-04T03:47:48.876Z,98850.59
2023-02-04T03:48:50.407Z,98854.09
2023-02-04T03:49:51.931Z,98877.47
2023-02-04T03:50:53.418Z,98866.44
2023-02-04T03:51:54.976Z,98888.44
2023-02-04T03:52:56.513Z,98894.88
2023-02-04T03:53:58.022Z,98903.97
2023-02-04T03:54:59.576Z,98921.94
2023-02-04T03:56:01.109Z,98926.19
2023-02-04T03:57:02.633Z,98905.34
2023-02-04T03:58:04.729Z,98938.81
2023-02-04T03:59:07.218Z,98947.81
2023-02-04T04:00:10.060Z,98948.56
2023-02-04T04:01:14.194Z,98941.25
2023-02-04T04:02:15.724Z,98963.72
2023-02-04T04:03:17.217Z,98971.25
2023-02-04T04:04:19.027Z,98981.63
2023-02-04T04:05:20.539Z,98984.22
2023-02-04T04:06:22.148Z,98980.59
2023-02-04T04:07:23.708Z,99008.41
2023-02-04T04:08:25.294Z,99000.88
2023-02-04T04:09:26.807Z,99029.25
2023-02-04T04:10:28.318Z,99017.31
2023-02-04T04:11:29.809Z,99018.72
2023-02-04T04:12:31.402Z,99029.22
2023-02-04T04:13:32.928Z,99046.72
2023-02-04T04:14:34.532Z,99042.41
2023-02-04T04:15:36.074Z,99057.66
2023-02-04T04:16:37.679Z,99058.44
2023-02-04T04:17:39.189Z,99047.94
2023-02-04T04:18:40.686Z,99072.28
2023-02-04T04:19:42.297Z,99090.34
2023-02-04T04:20:43.793Z,99080.91
2023-02-04T04:21:45.280Z,99085.97
2023-02-04T04:22:46.816Z,99097.66
2023-02-04T04:23:48.355Z,99083.25
2023-02-04T04:24:49.937Z,99075.44
2023-02-04T04:25:51.429Z,99105.72
2023-02-04T04:26:52.914Z,99114.22
2023-02-04T04:27:54.429Z,99122.28
2023-02-04T04:28:55.968Z,99132.50
2023-02-04T04:29:57.868Z,99134.22
2023-02-04T04:30:59.421Z,99127.38
2023-02-04T04:32:00.951Z,99134.50
2023-02-04T04:33:02.595Z,99147.34
2023-02-04T04:34:04.136Z,99153.38
2023-02-04T04:35:05.864Z,99147.50
2023-02-04T04:36:07.855Z,99131.00
2023-02-04T04:37:09.347Z,99150.13
2023-02-04T04:38:10.859Z,99182.75
2023-02-04T04:39:12.497Z,99190.41
2023-02-04T04:40:14.197Z,99203.63
2023-02-04T04:41:15.707Z,99194.97
2023-02-04T04:42:17.307Z,99201.00
2023-02-04T04:43:18.895Z,99207.66
2023-02-04T04:44:20.407Z,99215.84
2023-02-04T04:45:22.207Z,99237.31
2023-02-04T04:46:23.799Z,99217.31
2023-02-04T04:47:25.333Z,99241.31
2023-02-04T04:48:26.834Z,99241.50
2023-02-04T04:49:28.586Z,99269.19
2023-02-04T04:50:30.595Z,99257.94
2023-02-04T04:51:32.697Z,99254.31
2023-02-04T04:52:34.276Z,99261.06
2023-02-04T04:53:35.810Z,99283.53
2023-02-04T04:54:37.345Z,99251.00
2023-02-04T04:55:39.000Z,99293.28
2023-02-04T04:56:40.535Z,99283.28
2023-02-04T04:57:42.089Z,99285.94
2023-02-04T04:58:43.584Z,99303.06
2023-02-04T04:59:45.136Z,99304.53
2023-02-04T05:00:46.681Z,99319.34
2023-02-04T05:01:48.264Z,99316.97
2023-02-04T05:02:49.917Z,99326.31
2023-02-04T05:03:51.455Z,99340.13
2023-02-04T05:04:53.391Z,99343.47
2023-02-04T05:05:54.912Z,99349.50
2023-02-04T05:06:56.421Z,99349.38
2023-02-04T05:07:57.916Z,99356.28
2023-02-04T05:08:59.404Z,99366.44
2023-02-04T05:10:00.997Z,99362.22
2023-02-04T05:11:03.552Z,99373.66
2023-02-04T05:12:05.389Z,99384.81
2023-02-04T05:13:06.981Z,99386.53
2023-02-04T05:14:08.504Z,99402.22
2023-02-04T05:15:10.229Z,99393.53
2023-02-04T05:16:12.014Z,99408.31
2023-02-04T05:17:13.553Z,99404.16
2023-02-04T05:18:15.206Z,99414.69
2023-02-04T05:19:16.743Z,99403.31
2023-02-04T05:20:18.340Z,99413.56
2023-02-04T05:21:19.892Z,99416.97
2023-02-04T05:22:21.417Z,99430.56
2023-02-04T05:23:22.901Z,99445.25
2023-02-04T05:24:24.461Z,99442.06
2023-02-04T05:25:26.107Z,99466.22
2023-02-04T05:26:30.778Z,99457.56
2023-02-04T05:27:32.779Z,99464.38
2023-02-04T05:28:34.304Z,99461.09
2023-02-04T05:29:35.826Z,99469.66
2023-02-04T05:30:37.410Z,99477.53
2023-02-04T05:31:39.039Z,99502.59
2023-02-04T05:32:40.838Z,99501.88
2023-02-04T05:33:42.324Z,99491.47
2023-02-04T05:34:43.895Z,99526.78
2023-02-04T05:35:45.492Z,99515.50
2023-02-04T05:36:47.051Z,99518.94
2023-02-04T05:37:48.601Z,99531.16
2023-02-04T05:38:50.096Z,99545.09
2023-02-04T05:39:51.728Z,99539.09
2023-02-04T05:40:53.211Z,99547.63
2023-02-04T05:41:54.746Z,99564.88
2023-02-04T05:42:56.389Z,99552.06
2023-02-04T05:43:57.945Z,99579.44
2023-02-04T05:44:59.561Z,99586.41
2023-02-04T05:46:01.703Z,99594.00
2023-02-04T05:47:03.237Z,99592.44
2023-02-04T05:48:05.052Z,99603.63
2023-02-04T05:49:06.578Z,99603.63
2023-02-04T05:50:08.710Z,99606.31
2023-02-04T05:51:10.272Z,99605.44
2023-02-04T05:52:12.345Z,99624.53
2023-02-04T05:53:13.817Z,99634.16
2023-02-04T05:54:15.333Z,99625.66
2023-02-04T05:55:16.933Z,99629.00
2023-02-04T05:56:18.435Z,99646.41
2023-02-04T05:57:19.957Z,99650.81
2023-02-04T05:58:21.519Z,99662.91
2023-02-04T05:59:23.111Z,99660.41
2023-02-04T06:00:24.792Z,99676.06
2023-02-04T06:01:26.301Z,99674.25
2023-02-04T06:02:27.901Z,99689.81
2023-02-04T06:03:30.944Z,99688.03
2023-02-04T06:04:32.567Z,99701.75
2023-02-04T06:05:34.202Z,99705.22
2023-02-04T06:06:35.819Z,99703.47
2023-02-04T06:07:37.469Z,99711.31
2023-02-04T06:08:39.003Z,99720.88
2023-02-04T06:09:40.492Z,99717.38
2023-02-04T06:10:41.972Z,99731.16
2023-02-04T06:11:43.500Z,99734.59
2023-02-04T06:12:45.046Z,99743.28
2023-02-04T06:13:46.559Z,99735.75
2023-02-04T06:14:48.071Z,99747.78
2023-02-04T06:15:49.605Z,99751.19
2023-02-04T06:16:51.113Z,99758.03
2023-02-04T06:17:52.671Z,99760.69
2023-02-04T06:18:54.195Z,99779.56
2023-02-04T06:19:55.685Z,99771.47
2023-02-04T06:20:57.171Z,99785.28
2023-02-04T06:21:58.735Z,99785.22
2023-02-04T06:23:00.270Z,99790.44
2023-02-04T06:24:01.783Z,99791.56
2023-02-04T06:25:03.333Z,99801.91
2023-02-04T06:26:05.080Z,99810.44
2023-02-04T06:27:06.774Z,99797.50
2023-02-04T06:28:08.415Z,99815.47
2023-02-04T06:29:09.999Z,99824.97
2023-02-04T06:30:11.945Z,99824.97
2023-02-04T06:31:13.517Z,99833.00
2023-02-04T06:32:15.065Z,99838.16
2023-02-04T06:33:16.579Z,99834.59
2023-02-04T06:34:18.098Z,99845.88
2023-02-04T06:35:19.660Z,99844.94
2023-02-04T06:36:21.235Z,99840.75
2023-02-04T06:37:24.376Z,99845.06
2023-02-04T06:38:25.991Z,99848.44
2023-02-04T06:39:27.499Z,99861.38
2023-02-04T06:40:29.232Z,99863.94
2023-02-04T06:41:30.940Z,99874.06
2023-02-04T06:42:32.581Z,99863.72
2023-02-04T06:43:34.105Z,99872.34
2023-02-04T06:44:35.780Z,99886.19
2023-02-04T06:45:37.296Z,99870.66
2023-02-04T06:46:38.949Z,99889.59
2023-02-04T06:47:40.464Z,99881.16
2023-02-04T06:48:42.056Z,99901.00
2023-02-04T06:49:43.595Z,99894.84
2023-02-04T06:50:45.247Z,99892.28
2023-02-04T06:51:46.820Z,99907.00
2023-02-04T06:52:48.753Z,99891.50
2023-02-04T06:53:50.295Z,99900.91
2023-02-04T06:54:51.800Z,99911.16
2023-02-04T06:55:53.286Z,99918.03
2023-02-04T06:56:54.850Z,99916.16
2023-02-04T06:57:56.418Z,99921.38
2023-02-04T06:58:57.941Z,99918.03
2023-02-04T06:59:59.487Z,99906.78
2023-02-04T07:01:01.048Z,99923.91
2023-02-04T07:02:03.206Z,99937.66
2023-02-04T07:03:04.689Z,99935.28
2023-02-04T07:04:06.203Z,99939.44
2023-02-04T07:05:08.462Z,99941.94
2023-02-04T07:06:09.963Z,99948.94
2023-02-04T07:07:12.021Z,99950.56
2023-02-04T07:08:13.570Z,99959.09
2023-02-04T07:09:15.113Z,99953.09
2023-02-04T07:10:17.999Z,99972.16
2023-02-04T07:11:19.607Z,99968.75
2023-02-04T07:12:21.170Z,99972.22
2023-02-04T07:13:22.746Z,99989.28
2023-02-04T07:14:24.280Z,99980.78
2023-02-04T07:15:25.860Z,99991.00
2023-02-04T07:16:27.507Z,99987.56
2023-02-04T07:17:29.071Z,100002.13
2023-02-04T07:18:30.574Z,99997.88
2023-02-04T07:19:32.138Z,100009.84
2023-02-04T07:20:34.053Z,100003.84
2023-02-04T07:21:35.812Z,100020.41
2023-02-04T07:22:37.413Z,100010.91
2023-02-04T07:23:39.092Z,100015.13
2023-02-04T07:24:40.860Z,100029.84
2023-02-04T07:25:42.396Z,100041.94
2023-02-04T07:26:43.944Z,100036.72
2023-02-04T07:27:45.479Z,100042.75
2023-02-04T07:28:47.130Z,100051.25
2023-02-04T07:29:48.651Z,100058.25
2023-02-04T07:30:50.237Z,100060.09
2023-02-04T07:31:51.881Z,100060.09
2023-02-04T07:32:53.461Z,100059.25
2023-02-04T07:33:54.993Z,100061.75
2023-02-04T07:34:56.522Z,100060.84
2023-02-04T07:35:58.096Z,100060.03
2023-02-04T07:36:59.692Z,100064.31
2023-02-04T07:38:01.207Z,100074.59
2023-02-04T07:39:02.767Z,100077.06
2023-02-04T07:40:04.963Z,100086.66
2023-02-04T07:41:06.540Z,100079.16
2023-02-04T07:42:08.411Z,100080.97
2023-02-04T07:43:18.659Z,100081.81
2023-02-04T07:44:20.180Z,100086.09
2023-02-04T07:45:21.989Z,100086.94
2023-02-04T07:46:23.641Z,100100.06
2023-02-04T07:47:25.149Z,100102.66
2023-02-04T07:48:26.677Z,100105.25
2023-02-04T07:49:28.167Z,100103.50
2023-02-04T07:50:29.850Z,100103.53
2023-02-04T07:51:31.545Z,100097.47
2023-02-04T07:52:33.046Z,100110.28
2023-02-04T07:53:34.524Z,100116.44
2023-02-04T07:54:36.069Z,100117.25
2023-02-04T07:55:37.602Z,100123.28
2023-02-04T07:56:39.099Z,100121.50
2023-02-04T07:57:40.718Z,100115.44
2023-02-04T07:58:42.218Z,100133.53
2023-02-04T07:59:43.741Z,100141.19
2023-02-04T08:00:45.267Z,100134.44
2023-02-04T08:01:46.806Z,100133.66
2023-02-04T08:02:48.517Z,100143.97
2023-02-04T08:03:50.078Z,100136.25
2023-02-04T08:04:51.612Z,100144.81
2023-02-04T08:05:53.701Z,100142.22
2023-02-04T08:06:55.199Z,100162.91
2023-02-04T08:07:56.701Z,100153.47
2023-02-04T08:08:58.219Z,100162.88
2023-02-04T08:09:59.760Z,100163.78
2023-02-04T08:11:02.358Z,100165.53
2023-02-04T08:12:04.059Z,100168.88
2023-02-04T08:13:05.557Z,100174.00
2023-02-04T08:14:07.051Z,100182.56
2023-02-04T08:15:08.999Z,100174.81
2023-02-04T08:16:11.909Z,100185.13
2023-02-04T08:17:13.570Z,100185.94
2023-02-04T08:18:15.125Z,100179.84
2023-02-04T08:19:16.673Z,100185.75
2023-02-04T08:20:18.293Z,100194.41
2023-02-04T08:21:19.844Z,100192.81
2023-02-04T08:22:21.573Z,100192.81
2023-02-04T08:23:23.058Z,100195.47
2023-02-04T08:24:24.536Z,100199.66
2023-02-04T08:25:26.091Z,100203.94
2023-02-04T08:26:27.655Z,100207.44
2023-02-04T08:27:29.197Z,100214.25
2023-02-04T08:28:30.796Z,100219.53
2023-02-04T08:29:32.612Z,100214.34
2023-02-04T08:30:34.494Z,100218.56
2023-02-04T08:31:37.799Z,100212.50
2023-02-04T08:32:39.477Z,100221.97
2023-02-04T08:33:41.016Z,100223.69
2023-02-04T08:34:42.494Z,100218.38
2023-02-04T08:35:44.231Z,100225.41
2023-02-04T08:36:45.754Z,100230.66
2023-02-04T08:37:47.294Z,100236.78
2023-02-04T08:38:48.812Z,100240.94
2023-02-04T08:39:50.466Z,100251.16
2023-02-04T08:40:51.961Z,100237.38
2023-02-04T08:41:53.447Z,100251.16
2023-02-04T08:42:54.937Z,100241.78
2023-02-04T08:43:56.877Z,100237.44
2023-02-04T08:44:58.397Z,100252.94
2023-02-04T08:45:59.922Z,100252.88
2023-02-04T08:47:01.438Z,100249.41
2023-02-04T08:48:02.957Z,100256.16
2023-02-04T08:49:04.452Z,100245.00
2023-02-04T08:50:06.313Z,100248.28
2023-02-04T08:51:07.838Z,100253.38
2023-02-04T08:52:09.532Z,100252.53
2023-02-04T08:53:11.070Z,100261.09
2023-02-04T08:54:12.582Z,100266.31
2023-02-04T08:55:14.252Z,100261.09
2023-02-04T08:56:15.759Z,100261.91
2023-02-04T08:57:17.301Z,100265.38
2023-02-04T08:58:18.818Z,100264.38
2023-02-04T08:59:20.331Z,100267.78
2023-02-04T09:00:22.991Z,100272.13
2023-02-04T09:01:24.623Z,100270.31
2023-02-04T09:02:26.247Z,100280.66
2023-02-04T09:03:28.044Z,100284.09
2023-02-04T09:04:29.787Z,100284.09
2023-02-04T09:05:31.477Z,100286.59
2023-02-04T09:06:33.019Z,100297.69
2023-02-04T09:07:34.535Z,100286.66
2023-02-04T09:08:36.286Z,100292.59
2023-02-04T09:09:37.858Z,100290.88
2023-02-04T09:10:39.340Z,100297.72
2023-02-04T09:11:41.734Z,100298.59
2023-02-04T09:12:43.266Z,100309.69
2023-02-04T09:13:44.794Z,100309.75
2023-02-04T09:14:46.368Z,100299.47
2023-02-04T09:15:47.899Z,100311.53
2023-02-04T09:16:49.601Z,100313.41
2023-02-04T09:17:52.296Z,100308.22
2023-02-04T09:18:53.822Z,100305.47
2023-02-04T09:19:55.292Z,100312.78
2023-02-04T09:20:56.638Z,100325.69
2023-02-04T09:21:58.278Z,100313.50
2023-02-04T09:22:59.792Z,100318.72
2023-02-04T09:24:01.303Z,100329.53
2023-02-04T09:25:02.997Z,100328.78
2023-02-04T09:26:04.958Z,100337.91
2023-02-04T09:27:06.583Z,100336.84
2023-02-04T09:28:09.113Z,100330.75
2023-02-04T09:29:10.696Z,100341.75
2023-02-04T09:30:12.747Z,100342.03
2023-02-04T09:31:15.079Z,100347.56
2023-02-04T09:32:16.658Z,100346.03
2023-02-04T09:33:18.816Z,100348.59
2023-02-04T09:34:20.321Z,100334.00
2023-02-04T09:35:21.917Z,100351.22
2023-02-04T09:36:23.436Z,100351.97
2023-02-04T09:37:25.118Z,100347.09
2023-02-04T09:38:26.613Z,100352.34
2023-02-04T09:39:29.059Z,100343.34
2023-02-04T09:40:35.528Z,100354.84
2023-02-04T09:41:40.054Z,100358.75
2023-02-04T09:42:41.639Z,100362.63
2023-02-04T09:43:45.472Z,100367.31
2023-02-04T09:44:46.990Z,100364.13
2023-02-04T09:45:49.302Z,100366.66
2023-02-04T09:46:53.791Z,100372.63
2023-02-04T09:47:58.600Z,100378.56
2023-02-04T09:49:00.263Z,100384.44
2023-02-04T09:50:01.840Z,100379.28
2023-02-04T09:51:08.273Z,100402.47
2023-02-04T09:52:13.680Z,100382.78
2023-02-04T09:53:20.404Z,100390.63
2023-02-04T09:54:23.159Z,100391.50
2023-02-04T09:55:28.865Z,100384.47
2023-02-04T09:56:31.150Z,100390.19
2023-02-04T09:57:32.661Z,100380.53
2023-02-04T09:58:34.637Z,100382.09
2023-02-04T09:59:36.114Z,100387.03
2023-02-04T10:00:37.642Z,100400.66
2023-02-04T10:01:39.783Z,100393.69
2023-02-04T10:02:41.558Z,100378.94
2023-02-04T10:03:45.473Z,100383.88
2023-02-04T10:04:47.265Z,100393.00
2023-02-04T10:05:50.164Z,100384.31
2023-02-04T10:06:51.909Z,100390.13
2023-02-04T10:07:53.423Z,100399.31
2023-02-04T10:08:56.467Z,100387.69
2023-02-04T10:09:58.235Z,100386.81
2023-02-04T10:10:59.768Z,100383.94
2023-02-04T10:12:01.388Z,100383.09
2023-02-04T10:13:03.168Z,100372.63
2023-02-04T10:14:05.136Z,100400.13
2023-02-04T10:15:13.944Z,100388.09
2023-02-04T10:16:28.941Z,100392.38
2023-02-04T10:17:30.485Z,100401.19
2023-02-04T10:18:33.846Z,100399.34
2023-02-04T10:19:35.573Z,100396.72
2023-02-04T10:20:37.797Z,100404.47
2023-02-04T10:21:39.538Z,100402.00
2023-02-04T10:22:41.564Z,100405.56
2023-02-04T10:23:46.597Z,100402.91
2023-02-04T10:24:48.237Z,100403.50
2023-02-04T10:25:49.808Z,100408.34
2023-02-04T10:26:51.323Z,100409.84
2023-02-04T10:27:57.283Z,100407.09
2023-02-04T10:29:05.059Z,100407.16
2023-02-04T10:30:06.981Z,100411.59
2023-02-04T10:31:27.692Z,100411.94
2023-02-04T10:32:34.036Z,100403.25
2023-02-04T10:33:35.556Z,100402.69
2023-02-04T10:34:40.172Z,100416.66
2023-02-04T10:35:46.383Z,100415.09
2023-02-04T10:36:53.602Z,100416.19
2023-02-04T10:38:06.440Z,100415.38
2023-02-04T10:39:18.574Z,100408.28
2023-02-04T10:40:36.793Z,100410.72
2023-02-04T10:41:39.001Z,100416.69
2023-02-04T10:42:48.474Z,100409.78
2023-02-04T10:44:03.108Z,100405.28
2023-02-04T10:45:04.913Z,100410.28
2023-02-04T10:46:06.514Z,100419.72
2023-02-04T10:47:17.737Z,100410.03
2023-02-04T10:48:19.788Z,100412.06
2023-02-04T10:49:23.834Z,100412.03
2023-02-04T10:50:27.943Z,100416.22
2023-02-04T10:51:29.460Z,100400.47
2023-02-04T10:52:36.512Z,100402.94
2023-02-04T10:53:38.137Z,100412.63
2023-02-04T10:54:39.654Z,100418.69
2023-02-04T10:55:41.277Z,100413.34
2023-02-04T10:56:42.839Z,100410.00
2023-02-04T10:57:47.188Z,100419.31
2023-02-04T10:58:49.379Z,100421.75
2023-02-04T10:59:54.971Z,100423.34
2023-02-04T11:00:57.197Z,100426.59
2023-02-04T11:02:01.113Z,100424.56
2023-02-04T11:03:11.898Z,100428.72
2023-02-04T11:04:13.438Z,100434.66
2023-02-04T11:05:20.645Z,100427.63
2023-02-04T11:06:24.469Z,100432.50
2023-02-04T11:07:26.019Z,100441.75
2023-02-04T11:08:36.658Z,100437.47
2023-02-04T11:09:41.623Z,100439.03
2023-02-04T11:10:43.608Z,100451.91
2023-02-04T11:11:46.972Z,100457.97
2023-02-04T11:12:54.071Z,100466.91
2023-02-04T11:13:55.493Z,100456.41
2023-02-04T11:14:57.734Z,100456.16
2023-02-04T11:16:33.206Z,100465.38
2023-02-04T11:17:35.425Z,100468.06
2023-02-04T11:19:06.298Z,100461.22
2023-02-04T11:20:30.905Z,100473.38
2023-02-04T11:21:32.569Z,100476.09
2023-02-04T11:22:42.208Z,100481.22
2023-02-04T11:23:43.756Z,100462.44
2023-02-04T11:24:45.446Z,100475.47
2023-02-04T11:25:46.989Z,100479.84
2023-02-04T11:27:20.564Z,100488.09
2023-02-04T11:28:26.368Z,100492.44
2023-02-04T11:29:33.963Z,100495.94
2023-02-04T11:30:35.557Z,100489.81
2023-02-04T11:31:49.025Z,100493.53
2023-02-04T11:33:22.089Z,100498.94
2023-02-04T11:34:23.553Z,100501.53
2023-02-04T11:35:28.694Z,100493.75
2023-02-04T11:36:30.635Z,100501.66
2023-02-04T11:37:38.397Z,100511.09
2023-02-04T11:38:44.097Z,100506.81
2023-02-04T11:39:48.362Z,100500.75
2023-02-04T11:40:56.662Z,100516.09
2023-02-04T11:42:01.679Z,100511.94
2023-02-04T11:43:10.802Z,100507.00
2023-02-04T11:44:13.723Z,100508.63
2023-02-04T11:45:26.981Z,100514.59
2023-02-04T11:46:29.499Z,100516.66
2023-02-04T11:47:36.438Z,100509.78
2023-02-04T11:48:38.446Z,100505.53
2023-02-04T11:49:40.007Z,100512.41
2023-02-04T11:50:41.920Z,100519.28
2023-02-04T11:51:43.662Z,100517.59
2023-02-04T11:52:45.256Z,100521.19
2023-02-04T11:53:51.855Z,100515.19
2023-02-04T11:55:02.458Z,100519.72
2023-02-04T11:56:04.296Z,100517.28
2023-02-04T11:57:06.380Z,100516.41
2023-02-04T11:58:15.013Z,100518.91
2023-02-04T11:59:16.622Z,100511.22
2023-02-04T12:00:21.905Z,100517.19
2023-02-04T12:01:25.793Z,100523.25
2023-02-04T12:02:27.383Z,100523.34
2023-02-04T12:03:31.713Z,100523.34
2023-02-04T12:04:33.285Z,100524.00
2023-02-04T12:05:46.272Z,100525.69
2023-02-04T12:06:58.755Z,100534.22
2023-02-04T12:08:11.838Z,100541.22